sensor_id;sensor_type;location;lat;lon;timestamp;P1;durP1;ratioP1;P2;durP2;ratioP2
16975;SDS011;8604;48.148;-1.786;2023-11-19T00:01:59;10.20;;;2.80;;
16975;SDS011;8604;48.148;-1.786;2023-11-19T00:04:30;15.40;;;3.13;;
16975;SDS011;8604;48.148;-1.786;2023-11-19T00:06:58;11.17;;;2.50;;
16975;SDS011;8604;48.148;-1.786;2023-11-19T00:09:30;12.77;;;3.27;;
16975;SDS011;8604;48.148;-1.786;2023-11-19T00:11:59;9.93;;;3.03;;
16975;SDS011;8604;48.148;-1.786;2023-11-19T00:14:28;12.13;;;3.53;;
16975;SDS011;8604;48.148;-1.786;2023-11-19T00:16:56;9.83;;;2.83;;
16975;SDS011;8604;48.148;-1.786;2023-11-19T00:19:25;9.90;;;2.90;;
16975;SDS011;8604;48.148;-1.786;2023-11-19T00:21:55;10.10;;;3.10;;
16975;SDS011;8604;48.148;-1.786;2023-11-19T00:24:29;10.80;;;3.10;;
16975;SDS011;8604;48.148;-1.786;2023-11-19T00:26:58;10.50;;;3.20;;
16975;SDS011;8604;48.148;-1.786;2023-11-19T00:29:26;14.00;;;3.20;;
16975;SDS011;8604;48.148;-1.786;2023-11-19T00:31:55;12.17;;;3.17;;
16975;SDS011;8604;48.148;-1.786;2023-11-19T00:34:24;10.73;;;2.60;;
16975;SDS011;8604;48.148;-1.786;2023-11-19T00:36:52;14.20;;;3.20;;
16975;SDS011;8604;48.148;-1.786;2023-11-19T00:39:23;13.30;;;3.43;;
16975;SDS011;8604;48.148;-1.786;2023-11-19T00:41:51;13.03;;;3.30;;
16975;SDS011;8604;48.148;-1.786;2023-11-19T00:44:19;14.90;;;3.67;;
16975;SDS011;8604;48.148;-1.786;2023-11-19T00:46:48;13.93;;;3.60;;
16975;SDS011;8604;48.148;-1.786;2023-11-19T00:49:17;15.83;;;3.80;;
16975;SDS011;8604;48.148;-1.786;2023-11-19T00:51:45;17.73;;;3.90;;
16975;SDS011;8604;48.148;-1.786;2023-11-19T00:54:13;14.90;;;3.40;;
16975;SDS011;8604;48.148;-1.786;2023-11-19T00:56:43;16.57;;;3.70;;
16975;SDS011;8604;48.148;-1.786;2023-11-19T01:02:35;14.47;;;3.60;;
16975;SDS011;8604;48.148;-1.786;2023-11-19T01:05:04;18.57;;;4.10;;
16975;SDS011;8604;48.148;-1.786;2023-11-19T01:07:36;18.03;;;4.30;;
16975;SDS011;8604;48.148;-1.786;2023-11-19T01:10:06;15.77;;;4.37;;
16975;SDS011;8604;48.148;-1.786;2023-11-19T01:12:36;15.50;;;4.17;;
16975;SDS011;8604;48.148;-1.786;2023-11-19T01:15:05;19.73;;;4.90;;
16975;SDS011;8604;48.148;-1.786;2023-11-19T01:17:34;19.23;;;4.30;;
16975;SDS011;8604;48.148;-1.786;2023-11-19T01:20:04;20.33;;;4.47;;
16975;SDS011;8604;48.148;-1.786;2023-11-19T01:22:33;24.60;;;5.07;;
16975;SDS011;8604;48.148;-1.786;2023-11-19T01:25:02;18.27;;;4.30;;
16975;SDS011;8604;48.148;-1.786;2023-11-19T01:27:32;20.77;;;4.50;;
16975;SDS011;8604;48.148;-1.786;2023-11-19T01:30:03;20.87;;;4.60;;
16975;SDS011;8604;48.148;-1.786;2023-11-19T01:32:36;22.03;;;4.97;;
16975;SDS011;8604;48.148;-1.786;2023-11-19T01:35:04;23.10;;;5.40;;
16975;SDS011;8604;48.148;-1.786;2023-11-19T01:37:34;22.57;;;4.73;;
16975;SDS011;8604;48.148;-1.786;2023-11-19T01:40:03;20.80;;;5.30;;
16975;SDS011;8604;48.148;-1.786;2023-11-19T01:42:35;17.93;;;4.37;;
16975;SDS011;8604;48.148;-1.786;2023-11-19T01:45:06;19.90;;;5.13;;
16975;SDS011;8604;48.148;-1.786;2023-11-19T01:47:37;23.73;;;4.87;;
16975;SDS011;8604;48.148;-1.786;2023-11-19T01:50:06;19.80;;;4.80;;
16975;SDS011;8604;48.148;-1.786;2023-11-19T01:52:36;22.60;;;4.57;;
16975;SDS011;8604;48.148;-1.786;2023-11-19T01:55:06;23.20;;;4.97;;
16975;SDS011;8604;48.148;-1.786;2023-11-19T01:57:36;21.47;;;5.13;;
16975;SDS011;8604;48.148;-1.786;2023-11-19T02:00:09;21.93;;;4.97;;
16975;SDS011;8604;48.148;-1.786;2023-11-19T02:02:39;21.37;;;4.60;;
16975;SDS011;8604;48.148;-1.786;2023-11-19T02:05:08;20.67;;;4.97;;
16975;SDS011;8604;48.148;-1.786;2023-11-19T02:07:37;23.23;;;5.17;;
16975;SDS011;8604;48.148;-1.786;2023-11-19T02:10:06;27.30;;;5.30;;
16975;SDS011;8604;48.148;-1.786;2023-11-19T02:12:40;19.57;;;4.93;;
16975;SDS011;8604;48.148;-1.786;2023-11-19T02:15:12;22.47;;;5.33;;
16975;SDS011;8604;48.148;-1.786;2023-11-19T02:17:40;22.97;;;5.33;;
16975;SDS011;8604;48.148;-1.786;2023-11-19T02:20:10;22.47;;;5.53;;
16975;SDS011;8604;48.148;-1.786;2023-11-19T02:22:41;23.03;;;5.50;;
16975;SDS011;8604;48.148;-1.786;2023-11-19T02:25:12;24.27;;;5.40;;
16975;SDS011;8604;48.148;-1.786;2023-11-19T02:27:51;27.20;;;5.50;;
16975;SDS011;8604;48.148;-1.786;2023-11-19T02:30:23;21.77;;;5.30;;
16975;SDS011;8604;48.148;-1.786;2023-11-19T02:32:53;24.20;;;5.27;;
16975;SDS011;8604;48.148;-1.786;2023-11-19T02:35:24;27.00;;;5.93;;
16975;SDS011;8604;48.148;-1.786;2023-11-19T02:37:53;27.17;;;5.50;;
16975;SDS011;8604;48.148;-1.786;2023-11-19T02:40:23;20.50;;;5.10;;
16975;SDS011;8604;48.148;-1.786;2023-11-19T02:42:53;19.43;;;4.90;;
16975;SDS011;8604;48.148;-1.786;2023-11-19T02:45:23;19.63;;;4.97;;
16975;SDS011;8604;48.148;-1.786;2023-11-19T02:47:54;20.70;;;5.13;;
16975;SDS011;8604;48.148;-1.786;2023-11-19T02:50:22;21.67;;;4.77;;
16975;SDS011;8604;48.148;-1.786;2023-11-19T02:52:53;22.43;;;5.63;;
16975;SDS011;8604;48.148;-1.786;2023-11-19T02:55:23;20.33;;;4.67;;
16975;SDS011;8604;48.148;-1.786;2023-11-19T02:57:56;19.03;;;4.70;;
16975;SDS011;8604;48.148;-1.786;2023-11-19T03:00:26;25.93;;;5.83;;
16975;SDS011;8604;48.148;-1.786;2023-11-19T03:03:02;24.07;;;5.27;;
16975;SDS011;8604;48.148;-1.786;2023-11-19T03:05:45;25.07;;;5.27;;
16975;SDS011;8604;48.148;-1.786;2023-11-19T03:08:14;32.10;;;6.13;;
16975;SDS011;8604;48.148;-1.786;2023-11-19T03:10:46;16.70;;;4.83;;
16975;SDS011;8604;48.148;-1.786;2023-11-19T03:13:15;23.77;;;5.07;;
16975;SDS011;8604;48.148;-1.786;2023-11-19T03:15:45;18.47;;;4.90;;
16975;SDS011;8604;48.148;-1.786;2023-11-19T03:18:13;22.87;;;5.13;;
16975;SDS011;8604;48.148;-1.786;2023-11-19T03:20:42;22.90;;;5.63;;
16975;SDS011;8604;48.148;-1.786;2023-11-19T03:23:10;26.23;;;5.37;;
16975;SDS011;8604;48.148;-1.786;2023-11-19T03:25:39;23.83;;;5.23;;
16975;SDS011;8604;48.148;-1.786;2023-11-19T03:28:07;25.00;;;5.97;;
16975;SDS011;8604;48.148;-1.786;2023-11-19T03:30:37;21.27;;;5.77;;
16975;SDS011;8604;48.148;-1.786;2023-11-19T03:33:05;18.40;;;4.97;;
16975;SDS011;8604;48.148;-1.786;2023-11-19T03:35:37;27.20;;;5.40;;
16975;SDS011;8604;48.148;-1.786;2023-11-19T03:38:07;26.47;;;5.97;;
16975;SDS011;8604;48.148;-1.786;2023-11-19T03:40:35;25.23;;;5.60;;
16975;SDS011;8604;48.148;-1.786;2023-11-19T03:43:05;23.83;;;5.30;;
16975;SDS011;8604;48.148;-1.786;2023-11-19T03:45:37;28.23;;;5.63;;
16975;SDS011;8604;48.148;-1.786;2023-11-19T03:48:07;20.13;;;5.07;;
16975;SDS011;8604;48.148;-1.786;2023-11-19T03:50:35;21.97;;;5.23;;
16975;SDS011;8604;48.148;-1.786;2023-11-19T03:53:04;29.13;;;5.87;;
16975;SDS011;8604;48.148;-1.786;2023-11-19T03:55:33;25.67;;;5.67;;
16975;SDS011;8604;48.148;-1.786;2023-11-19T03:58:01;22.53;;;5.30;;
16975;SDS011;8604;48.148;-1.786;2023-11-19T04:00:31;24.37;;;5.40;;
16975;SDS011;8604;48.148;-1.786;2023-11-19T04:03:01;26.90;;;5.77;;
16975;SDS011;8604;48.148;-1.786;2023-11-19T04:05:30;25.87;;;5.70;;
16975;SDS011;8604;48.148;-1.786;2023-11-19T04:07:59;27.77;;;6.20;;
16975;SDS011;8604;48.148;-1.786;2023-11-19T04:10:28;27.90;;;5.93;;
16975;SDS011;8604;48.148;-1.786;2023-11-19T04:12:56;29.00;;;5.90;;
16975;SDS011;8604;48.148;-1.786;2023-11-19T04:15:24;32.07;;;6.47;;
16975;SDS011;8604;48.148;-1.786;2023-11-19T04:17:52;26.00;;;5.53;;
16975;SDS011;8604;48.148;-1.786;2023-11-19T04:20:22;30.93;;;5.90;;
16975;SDS011;8604;48.148;-1.786;2023-11-19T04:22:51;25.60;;;6.33;;
16975;SDS011;8604;48.148;-1.786;2023-11-19T04:25:21;30.27;;;6.30;;
16975;SDS011;8604;48.148;-1.786;2023-11-19T04:27:50;35.40;;;6.33;;
16975;SDS011;8604;48.148;-1.786;2023-11-19T04:30:18;29.90;;;6.10;;
16975;SDS011;8604;48.148;-1.786;2023-11-19T04:32:46;31.53;;;6.50;;
16975;SDS011;8604;48.148;-1.786;2023-11-19T04:35:15;30.10;;;5.90;;
16975;SDS011;8604;48.148;-1.786;2023-11-19T04:37:47;27.00;;;6.33;;
16975;SDS011;8604;48.148;-1.786;2023-11-19T04:40:15;26.70;;;5.70;;
16975;SDS011;8604;48.148;-1.786;2023-11-19T04:42:45;28.57;;;6.50;;
16975;SDS011;8604;48.148;-1.786;2023-11-19T04:45:13;23.67;;;5.63;;
16975;SDS011;8604;48.148;-1.786;2023-11-19T04:47:42;26.97;;;5.53;;
16975;SDS011;8604;48.148;-1.786;2023-11-19T04:50:11;32.60;;;6.77;;
16975;SDS011;8604;48.148;-1.786;2023-11-19T04:52:39;31.83;;;6.37;;
16975;SDS011;8604;48.148;-1.786;2023-11-19T04:55:10;30.77;;;6.17;;
16975;SDS011;8604;48.148;-1.786;2023-11-19T04:57:41;28.80;;;6.20;;
16975;SDS011;8604;48.148;-1.786;2023-11-19T05:00:10;25.03;;;5.33;;
16975;SDS011;8604;48.148;-1.786;2023-11-19T05:02:43;27.23;;;6.27;;
16975;SDS011;8604;48.148;-1.786;2023-11-19T05:05:12;37.93;;;6.93;;
16975;SDS011;8604;48.148;-1.786;2023-11-19T05:07:41;31.90;;;6.10;;
16975;SDS011;8604;48.148;-1.786;2023-11-19T05:10:14;28.00;;;6.30;;
16975;SDS011;8604;48.148;-1.786;2023-11-19T05:12:42;29.97;;;7.00;;
16975;SDS011;8604;48.148;-1.786;2023-11-19T05:15:11;29.53;;;5.80;;
16975;SDS011;8604;48.148;-1.786;2023-11-19T05:17:40;40.03;;;6.97;;
16975;SDS011;8604;48.148;-1.786;2023-11-19T05:20:09;34.00;;;7.10;;
16975;SDS011;8604;48.148;-1.786;2023-11-19T05:22:40;30.03;;;6.47;;
16975;SDS011;8604;48.148;-1.786;2023-11-19T05:25:09;32.27;;;6.13;;
16975;SDS011;8604;48.148;-1.786;2023-11-19T05:27:42;26.93;;;6.13;;
16975;SDS011;8604;48.148;-1.786;2023-11-19T05:30:10;26.67;;;5.87;;
16975;SDS011;8604;48.148;-1.786;2023-11-19T05:32:39;38.10;;;7.17;;
16975;SDS011;8604;48.148;-1.786;2023-11-19T05:35:08;25.23;;;5.93;;
16975;SDS011;8604;48.148;-1.786;2023-11-19T05:37:36;32.87;;;7.10;;
16975;SDS011;8604;48.148;-1.786;2023-11-19T05:40:05;26.10;;;6.13;;
16975;SDS011;8604;48.148;-1.786;2023-11-19T05:42:42;29.77;;;6.33;;
16975;SDS011;8604;48.148;-1.786;2023-11-19T05:45:12;34.13;;;6.93;;
16975;SDS011;8604;48.148;-1.786;2023-11-19T05:47:44;32.13;;;6.20;;
16975;SDS011;8604;48.148;-1.786;2023-11-19T05:50:12;29.33;;;6.33;;
16975;SDS011;8604;48.148;-1.786;2023-11-19T05:52:41;28.20;;;5.87;;
16975;SDS011;8604;48.148;-1.786;2023-11-19T05:55:09;29.37;;;6.27;;
16975;SDS011;8604;48.148;-1.786;2023-11-19T05:57:38;30.23;;;7.03;;
16975;SDS011;8604;48.148;-1.786;2023-11-19T06:00:12;31.97;;;6.83;;
16975;SDS011;8604;48.148;-1.786;2023-11-19T06:02:42;25.47;;;6.07;;
16975;SDS011;8604;48.148;-1.786;2023-11-19T06:05:11;25.63;;;5.87;;
16975;SDS011;8604;48.148;-1.786;2023-11-19T06:07:40;28.90;;;6.30;;
16975;SDS011;8604;48.148;-1.786;2023-11-19T06:10:08;26.70;;;5.90;;
16975;SDS011;8604;48.148;-1.786;2023-11-19T06:12:39;32.30;;;6.07;;
16975;SDS011;8604;48.148;-1.786;2023-11-19T06:15:08;34.20;;;6.67;;
16975;SDS011;8604;48.148;-1.786;2023-11-19T06:17:39;31.77;;;6.73;;
16975;SDS011;8604;48.148;-1.786;2023-11-19T06:20:08;27.43;;;6.33;;
16975;SDS011;8604;48.148;-1.786;2023-11-19T06:22:38;32.77;;;6.70;;
16975;SDS011;8604;48.148;-1.786;2023-11-19T06:25:08;30.33;;;6.30;;
16975;SDS011;8604;48.148;-1.786;2023-11-19T06:27:37;29.47;;;6.10;;
16975;SDS011;8604;48.148;-1.786;2023-11-19T06:30:06;29.73;;;6.23;;
16975;SDS011;8604;48.148;-1.786;2023-11-19T06:32:35;27.53;;;6.40;;
16975;SDS011;8604;48.148;-1.786;2023-11-19T06:35:05;27.60;;;6.43;;
16975;SDS011;8604;48.148;-1.786;2023-11-19T06:37:34;27.73;;;6.27;;
16975;SDS011;8604;48.148;-1.786;2023-11-19T06:40:03;29.47;;;6.53;;
16975;SDS011;8604;48.148;-1.786;2023-11-19T06:42:32;31.53;;;6.77;;
16975;SDS011;8604;48.148;-1.786;2023-11-19T06:45:02;29.90;;;5.83;;
16975;SDS011;8604;48.148;-1.786;2023-11-19T06:47:31;26.37;;;6.33;;
16975;SDS011;8604;48.148;-1.786;2023-11-19T06:49:59;24.07;;;5.60;;
16975;SDS011;8604;48.148;-1.786;2023-11-19T06:52:35;25.13;;;5.70;;
16975;SDS011;8604;48.148;-1.786;2023-11-19T06:55:05;26.97;;;6.17;;
16975;SDS011;8604;48.148;-1.786;2023-11-19T06:57:44;27.93;;;5.70;;
16975;SDS011;8604;48.148;-1.786;2023-11-19T07:00:12;27.57;;;5.93;;
16975;SDS011;8604;48.148;-1.786;2023-11-19T07:03:09;21.83;;;6.00;;
16975;SDS011;8604;48.148;-1.786;2023-11-19T07:06:15;25.57;;;5.30;;
16975;SDS011;8604;48.148;-1.786;2023-11-19T07:09:04;22.13;;;5.50;;
16975;SDS011;8604;48.148;-1.786;2023-11-19T07:11:39;25.57;;;5.73;;
16975;SDS011;8604;48.148;-1.786;2023-11-19T07:14:08;21.50;;;5.43;;
16975;SDS011;8604;48.148;-1.786;2023-11-19T07:16:38;24.90;;;5.43;;
16975;SDS011;8604;48.148;-1.786;2023-11-19T07:19:16;35.27;;;6.97;;
16975;SDS011;8604;48.148;-1.786;2023-11-19T07:22:05;26.13;;;5.60;;
16975;SDS011;8604;48.148;-1.786;2023-11-19T07:24:35;21.23;;;5.57;;
16975;SDS011;8604;48.148;-1.786;2023-11-19T07:27:30;22.83;;;5.63;;
16975;SDS011;8604;48.148;-1.786;2023-11-19T07:30:22;24.07;;;5.20;;
16975;SDS011;8604;48.148;-1.786;2023-11-19T07:32:51;32.73;;;6.43;;
16975;SDS011;8604;48.148;-1.786;2023-11-19T07:35:19;32.33;;;6.60;;
16975;SDS011;8604;48.148;-1.786;2023-11-19T07:37:52;33.17;;;7.00;;
16975;SDS011;8604;48.148;-1.786;2023-11-19T07:40:28;32.03;;;6.37;;
16975;SDS011;8604;48.148;-1.786;2023-11-19T07:43:26;30.97;;;7.00;;
16975;SDS011;8604;48.148;-1.786;2023-11-19T07:45:57;31.17;;;8.27;;
16975;SDS011;8604;48.148;-1.786;2023-11-19T07:48:26;30.00;;;7.33;;
16975;SDS011;8604;48.148;-1.786;2023-11-19T07:50:55;28.97;;;6.07;;
16975;SDS011;8604;48.148;-1.786;2023-11-19T07:53:23;25.60;;;6.07;;
16975;SDS011;8604;48.148;-1.786;2023-11-19T07:55:53;29.40;;;6.77;;
16975;SDS011;8604;48.148;-1.786;2023-11-19T07:58:22;29.23;;;7.10;;
16975;SDS011;8604;48.148;-1.786;2023-11-19T08:00:50;34.07;;;8.37;;
16975;SDS011;8604;48.148;-1.786;2023-11-19T08:03:19;29.53;;;6.47;;
16975;SDS011;8604;48.148;-1.786;2023-11-19T08:05:49;31.80;;;8.87;;
16975;SDS011;8604;48.148;-1.786;2023-11-19T08:08:17;31.13;;;8.17;;
16975;SDS011;8604;48.148;-1.786;2023-11-19T08:10:46;40.10;;;8.63;;
16975;SDS011;8604;48.148;-1.786;2023-11-19T08:13:15;29.80;;;6.80;;
16975;SDS011;8604;48.148;-1.786;2023-11-19T08:15:47;35.13;;;7.53;;
16975;SDS011;8604;48.148;-1.786;2023-11-19T08:18:15;29.83;;;7.60;;
16975;SDS011;8604;48.148;-1.786;2023-11-19T08:20:44;33.60;;;7.10;;
16975;SDS011;8604;48.148;-1.786;2023-11-19T08:23:16;31.20;;;7.40;;
16975;SDS011;8604;48.148;-1.786;2023-11-19T08:25:44;28.83;;;6.00;;
16975;SDS011;8604;48.148;-1.786;2023-11-19T08:28:13;30.30;;;7.03;;
16975;SDS011;8604;48.148;-1.786;2023-11-19T08:30:43;35.27;;;8.13;;
16975;SDS011;8604;48.148;-1.786;2023-11-19T08:33:11;30.80;;;8.80;;
16975;SDS011;8604;48.148;-1.786;2023-11-19T08:35:41;28.93;;;8.27;;
16975;SDS011;8604;48.148;-1.786;2023-11-19T08:38:10;31.63;;;7.60;;
16975;SDS011;8604;48.148;-1.786;2023-11-19T08:40:38;31.73;;;7.37;;
16975;SDS011;8604;48.148;-1.786;2023-11-19T08:43:07;29.03;;;7.03;;
16975;SDS011;8604;48.148;-1.786;2023-11-19T08:45:35;30.47;;;8.03;;
16975;SDS011;8604;48.148;-1.786;2023-11-19T08:48:05;29.77;;;8.00;;
16975;SDS011;8604;48.148;-1.786;2023-11-19T08:50:34;31.63;;;6.77;;
16975;SDS011;8604;48.148;-1.786;2023-11-19T08:53:02;33.27;;;8.17;;
16975;SDS011;8604;48.148;-1.786;2023-11-19T08:55:33;34.80;;;8.03;;
16975;SDS011;8604;48.148;-1.786;2023-11-19T08:58:01;28.30;;;6.97;;
16975;SDS011;8604;48.148;-1.786;2023-11-19T09:00:30;29.40;;;9.70;;
16975;SDS011;8604;48.148;-1.786;2023-11-19T09:02:59;33.67;;;10.07;;
16975;SDS011;8604;48.148;-1.786;2023-11-19T09:05:29;33.87;;;8.40;;
16975;SDS011;8604;48.148;-1.786;2023-11-19T09:07:58;32.97;;;7.03;;
16975;SDS011;8604;48.148;-1.786;2023-11-19T09:10:26;27.47;;;6.90;;
16975;SDS011;8604;48.148;-1.786;2023-11-19T09:12:56;30.63;;;6.80;;
16975;SDS011;8604;48.148;-1.786;2023-11-19T09:15:24;25.37;;;5.93;;
16975;SDS011;8604;48.148;-1.786;2023-11-19T09:17:53;30.67;;;6.50;;
16975;SDS011;8604;48.148;-1.786;2023-11-19T09:20:21;24.87;;;5.90;;
16975;SDS011;8604;48.148;-1.786;2023-11-19T09:22:51;31.83;;;7.30;;
16975;SDS011;8604;48.148;-1.786;2023-11-19T09:25:20;33.63;;;7.67;;
16975;SDS011;8604;48.148;-1.786;2023-11-19T09:27:48;24.33;;;6.30;;
16975;SDS011;8604;48.148;-1.786;2023-11-19T09:30:17;31.33;;;6.90;;
16975;SDS011;8604;48.148;-1.786;2023-11-19T09:32:45;29.17;;;6.70;;
16975;SDS011;8604;48.148;-1.786;2023-11-19T09:35:14;33.43;;;6.90;;
16975;SDS011;8604;48.148;-1.786;2023-11-19T09:37:43;30.87;;;7.00;;
16975;SDS011;8604;48.148;-1.786;2023-11-19T09:40:13;33.00;;;6.83;;
16975;SDS011;8604;48.148;-1.786;2023-11-19T09:42:42;29.33;;;6.27;;
16975;SDS011;8604;48.148;-1.786;2023-11-19T09:45:13;28.37;;;6.63;;
16975;SDS011;8604;48.148;-1.786;2023-11-19T09:47:43;27.30;;;6.70;;
16975;SDS011;8604;48.148;-1.786;2023-11-19T09:50:14;34.47;;;7.00;;
16975;SDS011;8604;48.148;-1.786;2023-11-19T09:52:45;25.43;;;5.73;;
16975;SDS011;8604;48.148;-1.786;2023-11-19T09:55:15;28.87;;;6.43;;
16975;SDS011;8604;48.148;-1.786;2023-11-19T09:57:44;43.13;;;19.60;;
16975;SDS011;8604;48.148;-1.786;2023-11-19T10:00:14;35.00;;;10.93;;
16975;SDS011;8604;48.148;-1.786;2023-11-19T10:02:45;39.30;;;12.67;;
16975;SDS011;8604;48.148;-1.786;2023-11-19T10:05:16;42.37;;;21.60;;
16975;SDS011;8604;48.148;-1.786;2023-11-19T10:07:47;32.00;;;8.33;;
16975;SDS011;8604;48.148;-1.786;2023-11-19T10:10:17;30.33;;;6.73;;
16975;SDS011;8604;48.148;-1.786;2023-11-19T10:12:46;25.33;;;6.50;;
16975;SDS011;8604;48.148;-1.786;2023-11-19T10:15:19;33.70;;;7.13;;
16975;SDS011;8604;48.148;-1.786;2023-11-19T10:17:48;28.57;;;7.60;;
16975;SDS011;8604;48.148;-1.786;2023-11-19T10:20:17;28.27;;;6.83;;
16975;SDS011;8604;48.148;-1.786;2023-11-19T10:22:45;35.47;;;8.93;;
16975;SDS011;8604;48.148;-1.786;2023-11-19T10:25:22;31.23;;;8.23;;
16975;SDS011;8604;48.148;-1.786;2023-11-19T10:27:52;27.03;;;5.77;;
16975;SDS011;8604;48.148;-1.786;2023-11-19T10:30:22;29.53;;;7.10;;
16975;SDS011;8604;48.148;-1.786;2023-11-19T10:33:02;26.50;;;6.13;;
16975;SDS011;8604;48.148;-1.786;2023-11-19T10:35:35;28.20;;;6.40;;
16975;SDS011;8604;48.148;-1.786;2023-11-19T10:38:13;25.23;;;6.03;;
16975;SDS011;8604;48.148;-1.786;2023-11-19T10:40:45;22.73;;;5.80;;
16975;SDS011;8604;48.148;-1.786;2023-11-19T10:43:15;27.47;;;6.47;;
16975;SDS011;8604;48.148;-1.786;2023-11-19T10:45:47;29.93;;;7.00;;
16975;SDS011;8604;48.148;-1.786;2023-11-19T10:48:18;24.57;;;5.83;;
16975;SDS011;8604;48.148;-1.786;2023-11-19T10:50:53;23.10;;;6.17;;
16975;SDS011;8604;48.148;-1.786;2023-11-19T10:53:39;28.87;;;6.20;;
16975;SDS011;8604;48.148;-1.786;2023-11-19T11:06:23;26.30;;;7.30;;
16975;SDS011;8604;48.148;-1.786;2023-11-19T11:08:54;21.10;;;5.13;;
16975;SDS011;8604;48.148;-1.786;2023-11-19T11:11:34;27.03;;;6.03;;
16975;SDS011;8604;48.148;-1.786;2023-11-19T11:14:23;26.93;;;7.03;;
16975;SDS011;8604;48.148;-1.786;2023-11-19T11:17:01;23.07;;;5.37;;
16975;SDS011;8604;48.148;-1.786;2023-11-19T11:19:31;22.27;;;5.90;;
16975;SDS011;8604;48.148;-1.786;2023-11-19T11:22:10;22.27;;;5.70;;
16975;SDS011;8604;48.148;-1.786;2023-11-19T11:24:57;28.43;;;6.10;;
16975;SDS011;8604;48.148;-1.786;2023-11-19T11:27:48;22.83;;;6.43;;
16975;SDS011;8604;48.148;-1.786;2023-11-19T11:30:28;29.17;;;6.70;;
16975;SDS011;8604;48.148;-1.786;2023-11-19T11:33:06;25.50;;;5.57;;
16975;SDS011;8604;48.148;-1.786;2023-11-19T11:35:49;19.37;;;4.80;;
16975;SDS011;8604;48.148;-1.786;2023-11-19T11:38:30;23.70;;;6.10;;
16975;SDS011;8604;48.148;-1.786;2023-11-19T11:41:18;24.13;;;5.63;;
16975;SDS011;8604;48.148;-1.786;2023-11-19T11:43:47;23.60;;;5.67;;
16975;SDS011;8604;48.148;-1.786;2023-11-19T11:49:26;23.53;;;5.57;;
16975;SDS011;8604;48.148;-1.786;2023-11-19T11:52:00;23.63;;;5.87;;
16975;SDS011;8604;48.148;-1.786;2023-11-19T11:54:32;28.53;;;7.00;;
16975;SDS011;8604;48.148;-1.786;2023-11-19T11:57:11;20.83;;;5.27;;
16975;SDS011;8604;48.148;-1.786;2023-11-19T11:59:48;24.17;;;6.47;;
16975;SDS011;8604;48.148;-1.786;2023-11-19T12:02:19;23.57;;;5.77;;
16975;SDS011;8604;48.148;-1.786;2023-11-19T12:04:49;21.37;;;5.73;;
16975;SDS011;8604;48.148;-1.786;2023-11-19T12:07:20;22.50;;;5.50;;
16975;SDS011;8604;48.148;-1.786;2023-11-19T12:09:53;22.03;;;6.00;;
16975;SDS011;8604;48.148;-1.786;2023-11-19T12:12:34;25.87;;;5.70;;
16975;SDS011;8604;48.148;-1.786;2023-11-19T12:15:06;27.77;;;5.60;;
16975;SDS011;8604;48.148;-1.786;2023-11-19T12:17:41;20.73;;;5.63;;
16975;SDS011;8604;48.148;-1.786;2023-11-19T12:20:18;23.07;;;5.93;;
16975;SDS011;8604;48.148;-1.786;2023-11-19T12:22:51;22.03;;;4.80;;
16975;SDS011;8604;48.148;-1.786;2023-11-19T12:25:22;24.57;;;5.60;;
16975;SDS011;8604;48.148;-1.786;2023-11-19T12:27:51;18.97;;;5.27;;
16975;SDS011;8604;48.148;-1.786;2023-11-19T12:30:21;22.47;;;5.10;;
16975;SDS011;8604;48.148;-1.786;2023-11-19T12:32:52;20.07;;;5.03;;
16975;SDS011;8604;48.148;-1.786;2023-11-19T12:35:22;17.70;;;4.87;;
16975;SDS011;8604;48.148;-1.786;2023-11-19T12:37:51;17.40;;;4.70;;
16975;SDS011;8604;48.148;-1.786;2023-11-19T12:40:22;20.13;;;5.70;;
16975;SDS011;8604;48.148;-1.786;2023-11-19T12:42:52;18.80;;;4.83;;
16975;SDS011;8604;48.148;-1.786;2023-11-19T12:45:22;17.93;;;4.60;;
16975;SDS011;8604;48.148;-1.786;2023-11-19T12:48:04;15.93;;;4.70;;
16975;SDS011;8604;48.148;-1.786;2023-11-19T12:53:20;17.90;;;4.87;;
16975;SDS011;8604;48.148;-1.786;2023-11-19T12:55:50;18.40;;;4.70;;
16975;SDS011;8604;48.148;-1.786;2023-11-19T12:58:29;21.20;;;4.93;;
16975;SDS011;8604;48.148;-1.786;2023-11-19T13:01:00;20.70;;;4.90;;
16975;SDS011;8604;48.148;-1.786;2023-11-19T13:03:30;24.30;;;6.67;;
16975;SDS011;8604;48.148;-1.786;2023-11-19T13:06:01;22.67;;;5.17;;
16975;SDS011;8604;48.148;-1.786;2023-11-19T13:08:35;18.40;;;4.40;;
16975;SDS011;8604;48.148;-1.786;2023-11-19T13:11:31;19.87;;;4.77;;
16975;SDS011;8604;48.148;-1.786;2023-11-19T13:14:02;18.60;;;4.20;;
16975;SDS011;8604;48.148;-1.786;2023-11-19T13:16:32;21.53;;;4.67;;
16975;SDS011;8604;48.148;-1.786;2023-11-19T13:19:00;18.73;;;4.40;;
16975;SDS011;8604;48.148;-1.786;2023-11-19T13:21:29;18.87;;;4.63;;
16975;SDS011;8604;48.148;-1.786;2023-11-19T13:23:58;20.07;;;4.37;;
16975;SDS011;8604;48.148;-1.786;2023-11-19T13:26:27;16.60;;;4.40;;
16975;SDS011;8604;48.148;-1.786;2023-11-19T13:28:57;21.93;;;4.53;;
16975;SDS011;8604;48.148;-1.786;2023-11-19T13:31:26;21.07;;;4.67;;
16975;SDS011;8604;48.148;-1.786;2023-11-19T13:33:55;18.47;;;4.20;;
16975;SDS011;8604;48.148;-1.786;2023-11-19T13:36:25;16.37;;;4.53;;
16975;SDS011;8604;48.148;-1.786;2023-11-19T13:38:54;20.30;;;4.87;;
16975;SDS011;8604;48.148;-1.786;2023-11-19T13:41:26;16.33;;;4.43;;
16975;SDS011;8604;48.148;-1.786;2023-11-19T13:43:55;20.07;;;4.43;;
16975;SDS011;8604;48.148;-1.786;2023-11-19T13:46:25;19.50;;;4.10;;
16975;SDS011;8604;48.148;-1.786;2023-11-19T13:48:53;21.13;;;4.57;;
16975;SDS011;8604;48.148;-1.786;2023-11-19T13:51:22;23.97;;;5.33;;
16975;SDS011;8604;48.148;-1.786;2023-11-19T13:53:51;20.00;;;5.20;;
16975;SDS011;8604;48.148;-1.786;2023-11-19T13:56:19;20.47;;;4.60;;
16975;SDS011;8604;48.148;-1.786;2023-11-19T13:58:47;20.17;;;5.10;;
16975;SDS011;8604;48.148;-1.786;2023-11-19T14:01:18;21.27;;;4.30;;
16975;SDS011;8604;48.148;-1.786;2023-11-19T14:03:56;19.37;;;4.80;;
16975;SDS011;8604;48.148;-1.786;2023-11-19T14:06:25;19.20;;;4.97;;
16975;SDS011;8604;48.148;-1.786;2023-11-19T14:08:54;17.93;;;4.10;;
16975;SDS011;8604;48.148;-1.786;2023-11-19T14:11:25;18.53;;;4.47;;
16975;SDS011;8604;48.148;-1.786;2023-11-19T14:16:54;21.83;;;4.87;;
16975;SDS011;8604;48.148;-1.786;2023-11-19T14:19:41;19.73;;;4.47;;
16975;SDS011;8604;48.148;-1.786;2023-11-19T14:22:09;18.63;;;5.10;;
16975;SDS011;8604;48.148;-1.786;2023-11-19T14:24:38;25.07;;;5.23;;
16975;SDS011;8604;48.148;-1.786;2023-11-19T14:27:08;17.00;;;4.60;;
16975;SDS011;8604;48.148;-1.786;2023-11-19T14:29:37;20.53;;;4.53;;
16975;SDS011;8604;48.148;-1.786;2023-11-19T14:32:45;19.23;;;5.30;;
16975;SDS011;8604;48.148;-1.786;2023-11-19T14:35:39;18.97;;;4.43;;
16975;SDS011;8604;48.148;-1.786;2023-11-19T14:38:08;24.27;;;5.20;;
16975;SDS011;8604;48.148;-1.786;2023-11-19T14:40:37;18.27;;;4.90;;
16975;SDS011;8604;48.148;-1.786;2023-11-19T14:43:09;19.87;;;4.60;;
16975;SDS011;8604;48.148;-1.786;2023-11-19T14:45:38;19.40;;;5.00;;
16975;SDS011;8604;48.148;-1.786;2023-11-19T14:48:16;18.97;;;4.77;;
16975;SDS011;8604;48.148;-1.786;2023-11-19T14:50:48;22.00;;;4.90;;
16975;SDS011;8604;48.148;-1.786;2023-11-19T14:53:43;21.60;;;4.50;;
16975;SDS011;8604;48.148;-1.786;2023-11-19T14:56:14;19.20;;;4.63;;
16975;SDS011;8604;48.148;-1.786;2023-11-19T14:58:43;20.80;;;5.00;;
16975;SDS011;8604;48.148;-1.786;2023-11-19T15:01:11;24.07;;;5.20;;
16975;SDS011;8604;48.148;-1.786;2023-11-19T15:03:41;19.37;;;4.57;;
16975;SDS011;8604;48.148;-1.786;2023-11-19T15:06:17;21.77;;;4.50;;
16975;SDS011;8604;48.148;-1.786;2023-11-19T15:08:49;17.37;;;4.43;;
16975;SDS011;8604;48.148;-1.786;2023-11-19T15:11:23;19.83;;;4.53;;
16975;SDS011;8604;48.148;-1.786;2023-11-19T15:14:00;20.70;;;4.53;;
16975;SDS011;8604;48.148;-1.786;2023-11-19T15:16:30;19.83;;;5.23;;
16975;SDS011;8604;48.148;-1.786;2023-11-19T15:19:01;24.40;;;5.33;;
16975;SDS011;8604;48.148;-1.786;2023-11-19T15:21:32;22.10;;;4.87;;